createdAt,value
2024-02-08T00:00:23.341Z,62.77
2024-02-08T00:02:50.097Z,60.71
2024-02-08T00:05:16.933Z,63.01
2024-02-08T00:07:43.646Z,61.85
2024-02-08T00:10:10.612Z,62.46
2024-02-08T00:12:40.736Z,62.39
2024-02-08T00:15:07.905Z,61.66
2024-02-08T00:17:34.568Z,62.94
2024-02-08T00:20:01.268Z,61.93
2024-02-08T00:22:27.841Z,61.54
2024-02-08T00:24:56.512Z,62.51
2024-02-08T00:27:23.148Z,62.26
2024-02-08T00:29:49.922Z,61.67
2024-02-08T00:32:16.492Z,62.02
2024-02-08T00:34:43.199Z,62.34
2024-02-08T00:37:09.912Z,62.62
2024-02-08T00:39:40.910Z,62.45
2024-02-08T00:42:07.385Z,62.68
2024-02-08T00:44:33.930Z,61.75
2024-02-08T00:47:00.523Z,61.58
2024-02-08T00:49:27.168Z,61.80
2024-02-08T00:51:53.813Z,61.17
2024-02-08T00:54:20.370Z,62.87
2024-02-08T00:56:46.962Z,62.86
2024-02-08T00:59:13.694Z,62.10
2024-02-08T01:01:41.451Z,63.29
2024-02-08T01:04:11.718Z,62.96
2024-02-08T01:06:41.959Z,62.65
2024-02-08T01:09:08.966Z,62.73
2024-02-08T01:11:36.037Z,62.65
2024-02-08T01:14:05.622Z,62.73
2024-02-08T01:16:32.331Z,61.42
2024-02-08T01:18:58.964Z,62.26
2024-02-08T01:21:27.387Z,62.02
2024-02-08T01:23:53.901Z,62.04
2024-02-08T01:26:20.914Z,62.83
2024-02-08T01:28:47.478Z,63.10
2024-02-08T01:31:15.352Z,62.19
2024-02-08T01:33:43.307Z,61.77
2024-02-08T01:36:11.730Z,62.67
2024-02-08T01:38:38.319Z,62.54
2024-02-08T01:41:07.346Z,61.99
2024-02-08T01:43:35.105Z,62.91
2024-02-08T01:46:03.024Z,62.92
2024-02-08T01:48:30.573Z,62.51
2024-02-08T01:50:59.519Z,63.29
2024-02-08T01:53:29.551Z,62.97
2024-02-08T01:55:59.725Z,62.97
2024-02-08T01:58:26.404Z,63.33
2024-02-08T02:00:54.238Z,63.42
2024-02-08T02:03:21.746Z,63.98
2024-02-08T02:05:48.574Z,63.81
2024-02-08T02:08:23.427Z,63.45
2024-02-08T02:10:55.392Z,63.58
2024-02-08T02:13:22.037Z,63.89
2024-02-08T02:15:50.901Z,63.72
2024-02-08T02:18:18.451Z,63.53
2024-02-08T02:20:44.973Z,64.00
2024-02-08T02:23:11.627Z,63.65
2024-02-08T02:25:39.888Z,63.96
2024-02-08T02:28:08.913Z,63.99
2024-02-08T02:30:37.025Z,64.60
2024-02-08T02:33:04.958Z,64.30
2024-02-08T02:35:31.644Z,64.19
2024-02-08T02:38:03.837Z,64.16
2024-02-08T02:40:31.572Z,64.17
2024-02-08T02:42:59.034Z,63.53
2024-02-08T02:45:30.161Z,63.72
2024-02-08T02:47:57.608Z,63.83
2024-02-08T02:50:24.616Z,64.83
2024-02-08T02:52:51.459Z,64.75
2024-02-08T02:55:21.297Z,65.25
2024-02-08T02:57:48.531Z,64.19
2024-02-08T03:00:25.309Z,64.61
2024-02-08T03:02:58.810Z,65.01
2024-02-08T03:05:25.604Z,65.56
2024-02-08T03:07:52.703Z,65.28
2024-02-08T03:10:23.301Z,65.46
2024-02-08T03:12:50.805Z,65.01
2024-02-08T03:15:20.659Z,64.95
2024-02-08T03:17:47.348Z,65.14
2024-02-08T03:20:18.511Z,64.97
2024-02-08T03:22:45.521Z,65.11
2024-02-08T03:25:15.446Z,64.54
2024-02-08T03:27:43.814Z,65.09
2024-02-08T03:30:32.197Z,64.91
2024-02-08T03:32:59.274Z,64.91
2024-02-08T03:35:27.169Z,65.50
2024-02-08T03:37:57.126Z,65.50
2024-02-08T03:40:23.927Z,65.34
2024-02-08T03:42:50.721Z,65.07
2024-02-08T03:45:18.888Z,65.15
2024-02-08T03:47:48.691Z,64.07
2024-02-08T03:50:15.663Z,64.84
2024-02-08T03:52:42.295Z,64.57
2024-02-08T03:55:09.623Z,65.07
2024-02-08T03:57:39.645Z,64.91
2024-02-08T04:00:14.280Z,64.67
2024-02-08T04:02:44.563Z,64.44
2024-02-08T04:05:21.365Z,64.24
2024-02-08T04:07:58.166Z,63.56
2024-02-08T04:10:36.926Z,64.27
2024-02-08T04:13:22.100Z,63.44
2024-02-08T04:16:07.457Z,64.03
2024-02-08T04:18:53.324Z,63.98
2024-02-08T04:21:38.835Z,64.17
2024-02-08T04:24:24.168Z,64.05
2024-02-08T04:27:09.028Z,64.25
2024-02-08T04:29:54.156Z,64.70
2024-02-08T04:32:49.772Z,64.41
2024-02-08T04:35:35.059Z,64.27
2024-02-08T04:38:20.344Z,64.11
2024-02-08T04:41:05.390Z,63.90
2024-02-08T04:43:50.879Z,64.77
2024-02-08T04:46:42.112Z,63.59
2024-02-08T04:49:32.464Z,64.45
2024-02-08T04:52:18.099Z,64.67
2024-02-08T04:54:44.706Z,64.13
2024-02-08T04:57:11.260Z,63.54
2024-02-08T04:59:45.889Z,64.00
2024-02-08T05:02:12.707Z,63.42
2024-02-08T05:04:39.310Z,63.76
2024-02-08T05:07:06.370Z,64.20
2024-02-08T05:09:33.292Z,64.16
2024-02-08T05:12:06.842Z,63.95
2024-02-08T05:14:36.701Z,63.47
2024-02-08T05:17:03.671Z,63.58
2024-02-08T05:19:30.437Z,63.76
2024-02-08T05:22:00.856Z,63.70
2024-02-08T05:24:29.076Z,63.50
2024-02-08T05:26:56.123Z,63.23
2024-02-08T05:29:22.701Z,63.67
2024-02-08T05:31:50.594Z,63.81
2024-02-08T05:34:18.792Z,63.34
2024-02-08T05:36:46.558Z,63.66
2024-02-08T05:39:25.317Z,63.91
2024-02-08T05:41:54.729Z,63.44
2024-02-08T05:44:21.886Z,63.65
2024-02-08T05:46:49.133Z,63.29
2024-02-08T05:49:16.527Z,62.82
2024-02-08T05:51:48.204Z,62.59
2024-02-08T05:54:21.882Z,63.00
2024-02-08T05:56:51.053Z,62.89
2024-02-08T05:59:19.308Z,63.16
2024-02-08T06:01:48.394Z,63.12
2024-02-08T06:04:25.590Z,62.82
2024-02-08T06:07:06.705Z,62.25
2024-02-08T06:09:48.711Z,62.62
2024-02-08T06:12:34.579Z,63.07
2024-02-08T06:15:01.075Z,63.06
2024-02-08T06:17:34.251Z,62.60
2024-02-08T06:20:10.941Z,63.10
2024-02-08T06:22:40.892Z,63.07
2024-02-08T06:25:28.324Z,62.91
2024-02-08T06:27:59.395Z,62.60
2024-02-08T06:30:31.956Z,62.95
2024-02-08T06:33:18.021Z,62.65
2024-02-08T06:35:46.471Z,62.82
2024-02-08T06:38:29.382Z,62.53
2024-02-08T06:40:56.311Z,63.02
2024-02-08T06:43:26.140Z,63.26
2024-02-08T06:45:53.545Z,63.31
2024-02-08T06:48:43.413Z,63.35
2024-02-08T06:51:28.279Z,63.57
2024-02-08T06:54:13.076Z,63.33
2024-02-08T06:56:58.447Z,63.86
2024-02-08T06:59:43.549Z,63.43
2024-02-08T07:02:28.875Z,63.80
2024-02-08T07:05:14.400Z,63.82
2024-02-08T07:08:00.082Z,63.83
2024-02-08T07:10:45.629Z,63.47
2024-02-08T07:13:30.952Z,63.31
2024-02-08T07:16:16.186Z,63.56
2024-02-08T07:19:06.769Z,63.77
2024-02-08T07:21:53.915Z,63.57
2024-02-08T07:24:38.871Z,63.20
2024-02-08T07:27:24.159Z,63.09
2024-02-08T07:30:08.961Z,63.34
2024-02-08T07:33:13.736Z,62.94
2024-02-08T07:35:58.945Z,62.83
2024-02-08T07:38:45.388Z,63.00
2024-02-08T07:41:13.582Z,63.28
2024-02-08T07:43:45.017Z,63.11
2024-02-08T07:46:17.922Z,63.09
2024-02-08T07:48:45.295Z,62.50
2024-02-08T07:51:16.699Z,61.55
2024-02-08T07:53:47.266Z,61.79
2024-02-08T07:56:47.222Z,63.06
2024-02-08T07:59:17.507Z,61.71
2024-02-08T08:01:51.090Z,62.45
2024-02-08T08:04:40.885Z,63.23
2024-02-08T08:07:10.747Z,62.36
2024-02-08T08:09:40.518Z,62.05
2024-02-08T08:12:07.234Z,62.09
2024-02-08T08:14:39.533Z,62.87
2024-02-08T08:17:09.663Z,62.51
2024-02-08T08:19:45.741Z,61.59
2024-02-08T08:22:25.108Z,61.45
2024-02-08T08:25:14.205Z,62.48
2024-02-08T08:28:00.312Z,62.24
2024-02-08T08:30:32.548Z,62.59
2024-02-08T08:33:06.358Z,62.49
2024-02-08T08:35:46.975Z,62.66
2024-02-08T08:38:19.765Z,62.67
2024-02-08T08:40:50.005Z,62.35
2024-02-08T08:43:21.331Z,62.29
2024-02-08T08:45:51.959Z,62.53
2024-02-08T08:48:21.826Z,62.20
2024-02-08T08:50:56.580Z,62.44
2024-02-08T08:53:29.679Z,61.69
2024-02-08T08:55:56.775Z,61.02
2024-02-08T08:58:28.876Z,60.03
2024-02-08T09:01:12.741Z,60.55
2024-02-08T09:03:40.301Z,59.92
2024-02-08T09:06:13.213Z,60.24
2024-02-08T09:08:46.765Z,59.47
2024-02-08T09:11:20.278Z,60.60
2024-02-08T09:13:52.762Z,60.26
2024-02-08T09:16:26.556Z,60.79
2024-02-08T09:19:02.617Z,61.04
2024-02-08T09:21:33.812Z,61.63
2024-02-08T09:24:05.422Z,60.42
2024-02-08T09:26:49.227Z,60.95
2024-02-08T09:29:16.615Z,60.95
2024-02-08T09:31:47.586Z,60.66
2024-02-08T09:34:18.121Z,60.71
2024-02-08T09:36:47.622Z,59.40
2024-02-08T09:39:16.992Z,60.25
2024-02-08T09:41:46.291Z,58.86
2024-02-08T09:44:15.668Z,60.15
2024-02-08T09:46:45.067Z,57.99
2024-02-08T09:49:15.798Z,57.57
2024-02-08T09:51:53.069Z,58.49
2024-02-08T09:54:31.795Z,59.15
2024-02-08T09:57:24.113Z,58.90
2024-02-08T10:00:22.772Z,59.37
2024-02-08T10:03:05.180Z,59.26
2024-02-08T10:05:51.832Z,58.87
2024-02-08T10:08:32.629Z,59.61
2024-02-08T10:11:25.440Z,58.98
2024-02-08T10:14:02.833Z,58.69
2024-02-08T10:16:53.240Z,58.51
2024-02-08T10:19:40.089Z,57.69
2024-02-08T10:22:19.308Z,58.06
2024-02-08T10:24:50.058Z,57.79
2024-02-08T10:27:20.704Z,58.08
2024-02-08T10:30:02.280Z,57.94
2024-02-08T10:32:29.034Z,58.38
2024-02-08T10:35:16.466Z,57.49
2024-02-08T10:37:55.066Z,56.60
2024-02-08T10:40:31.502Z,56.63
2024-02-08T10:43:01.099Z,56.87
2024-02-08T10:45:33.272Z,55.24
2024-02-08T10:48:00.841Z,54.87
2024-02-08T10:50:30.392Z,55.73
2024-02-08T10:53:01.984Z,56.26
2024-02-08T10:55:38.580Z,56.21
2024-02-08T10:58:12.920Z,56.62
2024-02-08T11:00:41.859Z,55.57
2024-02-08T11:03:10.263Z,55.81
2024-02-08T11:05:50.454Z,56.44
2024-02-08T11:08:25.663Z,55.84
2024-02-08T11:10:55.723Z,56.30
2024-02-08T11:13:30.470Z,56.00
2024-02-08T11:16:06.076Z,55.50
2024-02-08T11:18:37.174Z,55.76
2024-02-08T11:21:14.137Z,56.45
2024-02-08T11:23:46.849Z,57.77
2024-02-08T11:26:14.027Z,57.17
2024-02-08T11:28:48.730Z,59.43
2024-02-08T11:31:18.031Z,58.43
2024-02-08T11:33:45.097Z,56.73
2024-02-08T11:36:17.910Z,58.21
2024-02-08T11:38:48.929Z,56.31
2024-02-08T11:41:19.504Z,58.27
2024-02-08T11:43:49.350Z,57.01
2024-02-08T11:46:19.776Z,56.07
2024-02-08T11:48:47.848Z,54.77
2024-02-08T11:51:15.803Z,56.39
2024-02-08T11:53:47.681Z,56.67
2024-02-08T11:56:17.100Z,55.26
2024-02-08T11:58:48.343Z,54.17
2024-02-08T12:01:15.579Z,53.89
2024-02-08T12:03:43.267Z,53.45
2024-02-08T12:06:19.306Z,53.86
2024-02-08T12:09:04.810Z,53.05
2024-02-08T12:11:32.441Z,52.63
2024-02-08T12:14:11.446Z,53.24
2024-02-08T12:16:52.288Z,51.43
2024-02-08T12:19:19.442Z,52.31
2024-02-08T12:21:59.239Z,53.17
2024-02-08T12:24:26.760Z,52.21
2024-02-08T12:26:59.115Z,52.82
2024-02-08T12:29:26.669Z,51.94
2024-02-08T12:31:56.106Z,52.43
2024-02-08T12:34:32.730Z,51.47
2024-02-08T12:37:07.106Z,53.16
2024-02-08T12:39:47.171Z,51.64
2024-02-08T12:42:15.631Z,51.99
2024-02-08T12:44:42.160Z,54.04
2024-02-08T12:47:10.794Z,53.28
2024-02-08T12:49:37.550Z,51.89
2024-02-08T12:52:04.989Z,54.22
2024-02-08T12:54:34.078Z,52.69
2024-02-08T12:57:14.202Z,52.34
2024-02-08T12:59:41.789Z,52.84
2024-02-08T13:02:14.051Z,53.20
2024-02-08T13:04:45.532Z,52.09
2024-02-08T13:07:16.498Z,52.61
2024-02-08T13:09:44.739Z,53.63
2024-02-08T13:12:21.288Z,52.17
2024-02-08T13:14:50.924Z,50.74
2024-02-08T13:17:21.488Z,51.02
2024-02-08T13:19:49.072Z,48.40
2024-02-08T13:22:15.887Z,49.59
2024-02-08T13:24:44.181Z,50.22
2024-02-08T13:27:11.474Z,50.30
2024-02-08T13:29:38.046Z,47.98
2024-02-08T13:32:04.792Z,50.61
2024-02-08T13:34:31.548Z,48.66
2024-02-08T13:37:00.029Z,47.07
2024-02-08T13:39:26.835Z,48.26
2024-02-08T13:41:53.339Z,48.87
2024-02-08T13:44:21.984Z,47.96
2024-02-08T13:46:52.386Z,49.48
2024-02-08T13:49:22.801Z,47.76
2024-02-08T13:51:51.970Z,47.02
2024-02-08T13:54:19.880Z,47.42
2024-02-08T13:56:46.435Z,49.44
2024-02-08T13:59:15.900Z,47.98
2024-02-08T14:01:46.198Z,47.74
2024-02-08T14:04:21.671Z,48.33
2024-02-08T14:06:56.503Z,47.91
2024-02-08T14:09:26.054Z,47.08
2024-02-08T14:11:57.118Z,48.02
2024-02-08T14:14:31.297Z,48.78
2024-02-08T14:16:59.828Z,49.14
2024-02-08T14:19:37.745Z,48.77
2024-02-08T14:22:07.856Z,49.56
2024-02-08T14:24:40.265Z,49.07
2024-02-08T14:27:06.998Z,48.95
2024-02-08T14:29:36.808Z,49.41
2024-02-08T14:32:07.056Z,49.96
2024-02-08T14:34:37.268Z,50.11
2024-02-08T14:37:06.563Z,50.27
2024-02-08T14:39:36.421Z,50.10
2024-02-08T14:42:12.872Z,50.21
2024-02-08T14:44:46.160Z,49.82
2024-02-08T14:47:32.176Z,49.98
2024-02-08T14:50:17.164Z,49.80
2024-02-08T14:52:50.656Z,49.94
2024-02-08T14:55:23.973Z,49.76
2024-02-08T14:57:54.393Z,49.79
2024-02-08T15:00:33.315Z,50.18
2024-02-08T15:03:25.886Z,50.32
2024-02-08T15:06:00.808Z,50.67
2024-02-08T15:08:27.776Z,50.49
2024-02-08T15:11:13.157Z,50.43
2024-02-08T15:13:50.456Z,50.27
2024-02-08T15:16:23.642Z,50.47
2024-02-08T15:18:54.715Z,49.97
2024-02-08T15:21:35.846Z,50.41
2024-02-08T15:24:08.683Z,50.69
2024-02-08T15:26:38.758Z,50.80
2024-02-08T15:29:05.868Z,50.37
2024-02-08T15:31:47.268Z,50.34
2024-02-08T15:34:17.222Z,50.85
2024-02-08T15:37:03.263Z,50.55
2024-02-08T15:39:35.581Z,50.92
2024-02-08T15:42:03.348Z,50.85
2024-02-08T15:44:36.426Z,51.20
2024-02-08T15:47:13.327Z,51.66
2024-02-08T15:49:42.327Z,51.48
2024-02-08T15:52:15.550Z,52.01
2024-02-08T15:54:44.848Z,51.96
2024-02-08T15:57:15.253Z,52.44
2024-02-08T15:59:45.881Z,52.47
2024-02-08T16:02:18.972Z,52.94
2024-02-08T16:04:51.945Z,52.38
2024-02-08T16:07:21.125Z,52.80
2024-02-08T16:09:51.830Z,53.14
2024-02-08T16:12:21.213Z,53.85
2024-02-08T16:14:51.141Z,54.11
2024-02-08T16:17:36.278Z,54.06
2024-02-08T16:20:24.400Z,54.60
2024-02-08T16:22:58.151Z,55.07
2024-02-08T16:25:45.982Z,54.06
2024-02-08T16:28:24.252Z,54.67
2024-02-08T16:31:00.818Z,54.22
2024-02-08T16:33:57.619Z,53.95
2024-02-08T16:36:24.254Z,54.91
2024-02-08T16:39:28.870Z,54.99
2024-02-08T16:42:01.652Z,54.71
2024-02-08T16:44:36.148Z,54.80
2024-02-08T16:47:07.426Z,55.90
2024-02-08T16:49:41.613Z,56.05
2024-02-08T16:52:11.699Z,55.93
2024-02-08T16:54:48.115Z,55.81
2024-02-08T16:57:18.501Z,56.19
2024-02-08T16:59:49.884Z,56.39
2024-02-08T17:02:25.354Z,56.75
2024-02-08T17:04:59.824Z,56.59
2024-02-08T17:07:46.994Z,56.86
2024-02-08T17:10:34.436Z,57.21
2024-02-08T17:13:11.589Z,57.50
2024-02-08T17:16:00.868Z,57.99
2024-02-08T17:18:35.035Z,57.73
2024-02-08T17:21:14.477Z,57.58
2024-02-08T17:23:54.642Z,57.61
2024-02-08T17:26:36.264Z,57.42
2024-02-08T17:29:21.044Z,57.45
2024-02-08T17:31:48.600Z,57.72
2024-02-08T17:34:16.459Z,57.70
2024-02-08T17:36:46.591Z,57.93
2024-02-08T17:39:34.907Z,57.39
2024-02-08T17:42:08.680Z,57.22
2024-02-08T17:44:42.444Z,57.28
2024-02-08T17:47:09.786Z,57.49
2024-02-08T17:49:37.060Z,58.04
2024-02-08T17:52:04.517Z,57.99
2024-02-08T17:54:45.732Z,57.85
2024-02-08T17:57:24.216Z,57.55
2024-02-08T18:00:01.054Z,57.72
2024-02-08T18:02:28.462Z,57.57
2024-02-08T18:04:55.154Z,57.60
2024-02-08T18:07:21.736Z,57.56
2024-02-08T18:10:17.600Z,57.70
2024-02-08T18:12:44.797Z,57.71
2024-02-08T18:15:23.205Z,57.88
2024-02-08T18:17:55.286Z,58.39
2024-02-08T18:20:22.675Z,58.23
2024-02-08T18:22:52.576Z,58.54
2024-02-08T18:25:31.495Z,58.14
2024-02-08T18:28:01.941Z,58.55
2024-02-08T18:30:30.493Z,58.49
2024-02-08T18:33:05.172Z,58.56
2024-02-08T18:35:35.574Z,58.94
2024-02-08T18:38:09.913Z,58.78
2024-02-08T18:40:38.182Z,58.58
2024-02-08T18:43:05.733Z,58.63
2024-02-08T18:45:38.728Z,58.65
2024-02-08T18:48:35.544Z,58.98
2024-02-08T18:51:07.405Z,58.75
2024-02-08T18:53:39.257Z,58.31
2024-02-08T18:56:11.824Z,58.47
2024-02-08T18:58:43.227Z,58.37
2024-02-08T19:04:23.955Z,58.61
2024-02-08T19:07:06.732Z,58.66
2024-02-08T19:09:34.615Z,58.81
2024-02-08T19:12:01.676Z,58.53
2024-02-08T19:14:28.246Z,58.57
2024-02-08T19:16:55.068Z,58.39
2024-02-08T19:19:24.808Z,58.71
2024-02-08T19:21:54.584Z,59.05
2024-02-08T19:24:23.676Z,59.12
2024-02-08T19:26:50.372Z,59.40
2024-02-08T19:29:18.696Z,59.53
2024-02-08T19:31:48.469Z,59.61
2024-02-08T19:34:22.657Z,60.04
2024-02-08T19:36:59.727Z,59.50
2024-02-08T19:39:29.405Z,59.80
2024-02-08T19:42:13.160Z,59.93
2024-02-08T19:44:57.532Z,59.79
2024-02-08T19:47:39.860Z,59.46
2024-02-08T19:50:10.914Z,59.68
2024-02-08T19:52:50.941Z,59.63
2024-02-08T19:55:47.050Z,59.78
2024-02-08T19:58:24.432Z,59.74
2024-02-08T20:01:00.496Z,59.59
2024-02-08T20:06:18.824Z,59.97
2024-02-08T20:08:46.457Z,59.44
2024-02-08T20:11:13.206Z,59.43
2024-02-08T20:13:40.223Z,59.06
2024-02-08T20:16:10.433Z,59.00
2024-02-08T20:18:38.758Z,59.56
2024-02-08T20:21:06.387Z,59.78
2024-02-08T20:23:40.747Z,59.46
2024-02-08T20:26:09.855Z,59.90
2024-02-08T20:28:38.256Z,59.37
2024-02-08T20:31:08.739Z,59.48
2024-02-08T20:33:39.042Z,59.86
2024-02-08T20:36:10.067Z,59.78
2024-02-08T20:38:37.000Z,59.99
2024-02-08T20:41:16.336Z,59.61
2024-02-08T20:43:50.837Z,60.18
2024-02-08T20:46:18.035Z,60.53
2024-02-08T20:48:47.112Z,60.42
2024-02-08T20:51:17.018Z,60.72
2024-02-08T20:53:44.730Z,61.02
2024-02-08T20:56:11.715Z,60.56
2024-02-08T20:58:41.711Z,60.34
2024-02-08T21:01:11.782Z,60.24
2024-02-08T21:03:40.678Z,60.08
2024-02-08T21:06:08.067Z,59.93
2024-02-08T21:08:39.542Z,59.75
2024-02-08T21:11:06.383Z,59.70
2024-02-08T21:13:33.426Z,59.71
2024-02-08T21:16:00.848Z,59.98
2024-02-08T21:18:29.778Z,59.63
2024-02-08T21:20:56.549Z,59.88
2024-02-08T21:23:23.341Z,59.51
2024-02-08T21:25:52.573Z,59.35
2024-02-08T21:28:24.239Z,59.26
2024-02-08T21:30:51.207Z,59.25
2024-02-08T21:33:18.112Z,59.71
2024-02-08T21:35:46.554Z,59.46
2024-02-08T21:38:13.551Z,59.65
2024-02-08T21:40:41.596Z,59.83
2024-02-08T21:43:16.489Z,59.79
2024-02-08T21:45:45.476Z,60.10
2024-02-08T21:48:12.351Z,59.71
2024-02-08T21:50:41.718Z,59.83
2024-02-08T21:53:08.320Z,59.78
2024-02-08T21:55:35.242Z,60.00
2024-02-08T21:58:05.172Z,59.93
2024-02-08T22:00:33.871Z,59.97
2024-02-08T22:03:01.040Z,59.76
2024-02-08T22:05:28.577Z,59.86
2024-02-08T22:07:55.529Z,60.13
2024-02-08T22:10:22.147Z,60.05
2024-02-08T22:12:48.830Z,59.97
2024-02-08T22:15:18.469Z,59.69
2024-02-08T22:17:49.814Z,59.54
2024-02-08T22:20:16.904Z,60.27
2024-02-08T22:22:45.212Z,60.32
2024-02-08T22:25:16.754Z,60.16
2024-02-08T22:27:45.397Z,60.39
2024-02-08T22:30:12.510Z,59.86
2024-02-08T22:32:42.858Z,59.67
2024-02-08T22:35:11.901Z,60.07
2024-02-08T22:37:47.576Z,60.24
2024-02-08T22:40:14.139Z,60.22
2024-02-08T22:42:42.271Z,60.07
2024-02-08T22:45:12.913Z,59.87
2024-02-08T22:47:43.896Z,60.32
2024-02-08T22:50:14.555Z,59.89
2024-02-08T22:52:47.236Z,60.64
2024-02-08T22:55:17.980Z,60.44
2024-02-08T22:58:01.420Z,60.56
2024-02-08T23:00:28.296Z,59.83
2024-02-08T23:03:08.891Z,60.30
2024-02-08T23:05:40.855Z,60.39
2024-02-08T23:08:11.885Z,60.28
2024-02-08T23:10:38.694Z,60.42
2024-02-08T23:13:11.300Z,60.41
2024-02-08T23:15:46.958Z,60.62
2024-02-08T23:18:20.220Z,60.99
2024-02-08T23:20:47.482Z,60.68
2024-02-08T23:23:14.629Z,60.54
2024-02-08T23:25:46.183Z,60.57
2024-02-08T23:28:13.003Z,60.61
2024-02-08T23:30:45.394Z,60.29
2024-02-08T23:33:35.032Z,60.27
2024-02-08T23:36:06.181Z,60.51
2024-02-08T23:38:34.741Z,60.59
2024-02-08T23:41:05.759Z,60.55
2024-02-08T23:43:35.359Z,60.79
2024-02-08T23:46:02.828Z,60.80
2024-02-08T23:48:32.223Z,60.39
2024-02-08T23:50:58.915Z,60.42
2024-02-08T23:53:28.382Z,60.34
2024-02-08T23:56:00.031Z,60.34
2024-02-08T23:58:27.903Z,60.49
